sensor_id;sensor_type;location;lat;lon;timestamp;temperature;humidity
59977;DHT22;45837;51.076;3.578;2024-03-08T00:01:40;20.10;49.00
59977;DHT22;45837;51.076;3.578;2024-03-08T00:04:06;20.00;48.90
59977;DHT22;45837;51.076;3.578;2024-03-08T00:06:32;20.00;48.90
59977;DHT22;45837;51.076;3.578;2024-03-08T00:08:58;20.00;48.80
59977;DHT22;45837;51.076;3.578;2024-03-08T00:11:23;20.00;48.90
59977;DHT22;45837;51.076;3.578;2024-03-08T00:13:52;19.90;48.70
59977;DHT22;45837;51.076;3.578;2024-03-08T00:16:18;19.90;48.80
59977;DHT22;45837;51.076;3.578;2024-03-08T00:18:48;19.90;48.80
59977;DHT22;45837;51.076;3.578;2024-03-08T00:21:14;19.90;48.80
59977;DHT22;45837;51.076;3.578;2024-03-08T00:23:40;19.90;48.80
59977;DHT22;45837;51.076;3.578;2024-03-08T00:26:06;19.90;48.90
59977;DHT22;45837;51.076;3.578;2024-03-08T00:28:32;19.80;49.00
59977;DHT22;45837;51.076;3.578;2024-03-08T00:30:59;19.80;48.90
59977;DHT22;45837;51.076;3.578;2024-03-08T00:33:25;19.80;49.00
59977;DHT22;45837;51.076;3.578;2024-03-08T00:35:53;19.80;49.00
59977;DHT22;45837;51.076;3.578;2024-03-08T00:38:19;19.80;49.00
59977;DHT22;45837;51.076;3.578;2024-03-08T00:40:45;19.70;49.10
59977;DHT22;45837;51.076;3.578;2024-03-08T00:43:10;19.70;49.10
59977;DHT22;45837;51.076;3.578;2024-03-08T00:45:36;19.70;49.10
59977;DHT22;45837;51.076;3.578;2024-03-08T00:48:02;19.70;49.10
59977;DHT22;45837;51.076;3.578;2024-03-08T00:50:28;19.70;49.10
59977;DHT22;45837;51.076;3.578;2024-03-08T00:52:54;19.70;49.40
59977;DHT22;45837;51.076;3.578;2024-03-08T00:55:20;19.60;49.20
59977;DHT22;45837;51.076;3.578;2024-03-08T00:57:45;19.60;49.20
59977;DHT22;45837;51.076;3.578;2024-03-08T01:00:12;19.60;49.20
59977;DHT22;45837;51.076;3.578;2024-03-08T01:02:38;19.60;49.20
59977;DHT22;45837;51.076;3.578;2024-03-08T01:05:04;19.60;49.20
59977;DHT22;45837;51.076;3.578;2024-03-08T01:07:33;19.60;49.30
59977;DHT22;45837;51.076;3.578;2024-03-08T01:09:58;19.50;49.20
59977;DHT22;45837;51.076;3.578;2024-03-08T01:12:24;19.50;49.40
59977;DHT22;45837;51.076;3.578;2024-03-08T01:14:50;19.60;49.40
59977;DHT22;45837;51.076;3.578;2024-03-08T01:17:15;19.60;49.30
59977;DHT22;45837;51.076;3.578;2024-03-08T01:19:41;19.50;49.30
59977;DHT22;45837;51.076;3.578;2024-03-08T01:22:07;19.50;49.30
59977;DHT22;45837;51.076;3.578;2024-03-08T01:24:33;19.50;49.20
59977;DHT22;45837;51.076;3.578;2024-03-08T01:27:00;19.50;49.20
59977;DHT22;45837;51.076;3.578;2024-03-08T01:29:26;19.50;49.30
59977;DHT22;45837;51.076;3.578;2024-03-08T01:31:51;19.50;49.40
59977;DHT22;45837;51.076;3.578;2024-03-08T01:34:17;19.50;49.40
59977;DHT22;45837;51.076;3.578;2024-03-08T01:36:43;19.50;49.40
59977;DHT22;45837;51.076;3.578;2024-03-08T01:39:09;19.40;49.40
59977;DHT22;45837;51.076;3.578;2024-03-08T01:41:34;19.40;49.40
59977;DHT22;45837;51.076;3.578;2024-03-08T01:44:01;19.40;49.30
59977;DHT22;45837;51.076;3.578;2024-03-08T01:46:27;19.40;49.20
59977;DHT22;45837;51.076;3.578;2024-03-08T01:48:54;19.40;49.30
59977;DHT22;45837;51.076;3.578;2024-03-08T01:51:20;19.40;49.20
59977;DHT22;45837;51.076;3.578;2024-03-08T01:53:46;19.40;49.30
59977;DHT22;45837;51.076;3.578;2024-03-08T01:56:12;19.30;49.20
59977;DHT22;45837;51.076;3.578;2024-03-08T01:58:41;19.30;49.20
59977;DHT22;45837;51.076;3.578;2024-03-08T02:01:09;19.30;49.20
59977;DHT22;45837;51.076;3.578;2024-03-08T02:03:36;19.30;49.20
59977;DHT22;45837;51.076;3.578;2024-03-08T02:06:01;19.30;49.30
59977;DHT22;45837;51.076;3.578;2024-03-08T02:08:27;19.30;49.30
59977;DHT22;45837;51.076;3.578;2024-03-08T02:10:53;19.30;49.30
59977;DHT22;45837;51.076;3.578;2024-03-08T02:13:19;19.20;49.20
59977;DHT22;45837;51.076;3.578;2024-03-08T02:15:51;19.20;49.20
59977;DHT22;45837;51.076;3.578;2024-03-08T02:18:18;19.30;49.10
59977;DHT22;45837;51.076;3.578;2024-03-08T02:20:45;19.30;49.10
59977;DHT22;45837;51.076;3.578;2024-03-08T02:23:13;19.20;49.00
59977;DHT22;45837;51.076;3.578;2024-03-08T02:25:39;19.20;49.10
59977;DHT22;45837;51.076;3.578;2024-03-08T02:28:05;19.20;49.20
59977;DHT22;45837;51.076;3.578;2024-03-08T02:30:30;19.20;49.20
59977;DHT22;45837;51.076;3.578;2024-03-08T02:32:56;19.20;49.20
59977;DHT22;45837;51.076;3.578;2024-03-08T02:35:23;19.20;49.10
59977;DHT22;45837;51.076;3.578;2024-03-08T02:37:48;19.10;49.10
59977;DHT22;45837;51.076;3.578;2024-03-08T02:40:14;19.20;49.10
59977;DHT22;45837;51.076;3.578;2024-03-08T02:42:40;19.10;49.20
59977;DHT22;45837;51.076;3.578;2024-03-08T02:45:06;19.10;49.20
59977;DHT22;45837;51.076;3.578;2024-03-08T02:47:31;19.20;49.10
59977;DHT22;45837;51.076;3.578;2024-03-08T02:49:57;19.10;49.10
59977;DHT22;45837;51.076;3.578;2024-03-08T02:52:23;19.10;49.10
59977;DHT22;45837;51.076;3.578;2024-03-08T02:54:48;19.10;49.10
59977;DHT22;45837;51.076;3.578;2024-03-08T02:57:15;19.10;49.00
59977;DHT22;45837;51.076;3.578;2024-03-08T02:59:41;19.10;49.10
59977;DHT22;45837;51.076;3.578;2024-03-08T03:02:07;19.10;49.00
59977;DHT22;45837;51.076;3.578;2024-03-08T03:04:33;19.10;49.20
59977;DHT22;45837;51.076;3.578;2024-03-08T03:07:00;19.00;49.00
59977;DHT22;45837;51.076;3.578;2024-03-08T03:09:26;19.00;48.90
59977;DHT22;45837;51.076;3.578;2024-03-08T03:11:53;19.00;48.90
59977;DHT22;45837;51.076;3.578;2024-03-08T03:14:21;19.00;48.90
59977;DHT22;45837;51.076;3.578;2024-03-08T03:16:46;19.00;48.90
59977;DHT22;45837;51.076;3.578;2024-03-08T03:19:12;19.00;49.00
59977;DHT22;45837;51.076;3.578;2024-03-08T03:21:38;19.00;49.00
59977;DHT22;45837;51.076;3.578;2024-03-08T03:24:03;19.00;49.00
59977;DHT22;45837;51.076;3.578;2024-03-08T03:26:30;19.00;48.90
59977;DHT22;45837;51.076;3.578;2024-03-08T03:28:56;19.00;49.00
59977;DHT22;45837;51.076;3.578;2024-03-08T03:31:22;18.90;48.90
59977;DHT22;45837;51.076;3.578;2024-03-08T03:33:50;18.90;48.90
59977;DHT22;45837;51.076;3.578;2024-03-08T03:36:17;18.90;48.90
59977;DHT22;45837;51.076;3.578;2024-03-08T03:38:43;18.90;49.00
59977;DHT22;45837;51.076;3.578;2024-03-08T03:41:08;18.90;48.80
59977;DHT22;45837;51.076;3.578;2024-03-08T03:43:37;18.90;48.80
59977;DHT22;45837;51.076;3.578;2024-03-08T03:46:06;18.90;48.90
59977;DHT22;45837;51.076;3.578;2024-03-08T03:48:32;18.90;48.70
59977;DHT22;45837;51.076;3.578;2024-03-08T03:50:58;18.90;48.90
59977;DHT22;45837;51.076;3.578;2024-03-08T03:53:23;18.90;48.90
59977;DHT22;45837;51.076;3.578;2024-03-08T03:55:51;18.90;48.90
59977;DHT22;45837;51.076;3.578;2024-03-08T03:58:16;18.80;48.80
59977;DHT22;45837;51.076;3.578;2024-03-08T04:00:48;18.80;48.70
59977;DHT22;45837;51.076;3.578;2024-03-08T04:03:14;18.80;48.70
59977;DHT22;45837;51.076;3.578;2024-03-08T04:05:39;18.80;48.80
59977;DHT22;45837;51.076;3.578;2024-03-08T04:08:05;18.80;48.80
59977;DHT22;45837;51.076;3.578;2024-03-08T04:10:31;18.80;48.70
59977;DHT22;45837;51.076;3.578;2024-03-08T04:12:57;18.80;48.80
59977;DHT22;45837;51.076;3.578;2024-03-08T04:15:23;18.80;48.70
59977;DHT22;45837;51.076;3.578;2024-03-08T04:17:49;18.80;48.70
59977;DHT22;45837;51.076;3.578;2024-03-08T04:20:14;18.80;48.70
59977;DHT22;45837;51.076;3.578;2024-03-08T04:22:40;18.80;48.70
59977;DHT22;45837;51.076;3.578;2024-03-08T04:25:06;18.80;48.70
59977;DHT22;45837;51.076;3.578;2024-03-08T04:27:32;18.70;48.50
59977;DHT22;45837;51.076;3.578;2024-03-08T04:29:58;18.70;48.50
59977;DHT22;45837;51.076;3.578;2024-03-08T04:32:24;18.70;48.50
59977;DHT22;45837;51.076;3.578;2024-03-08T04:34:50;18.70;48.50
59977;DHT22;45837;51.076;3.578;2024-03-08T04:37:16;18.70;48.50
59977;DHT22;45837;51.076;3.578;2024-03-08T04:39:47;18.70;48.40
59977;DHT22;45837;51.076;3.578;2024-03-08T04:42:13;18.70;48.30
59977;DHT22;45837;51.076;3.578;2024-03-08T04:44:39;18.70;48.20
59977;DHT22;45837;51.076;3.578;2024-03-08T04:47:05;18.70;48.30
59977;DHT22;45837;51.076;3.578;2024-03-08T04:49:34;18.70;48.20
59977;DHT22;45837;51.076;3.578;2024-03-08T04:52:03;18.70;48.30
59977;DHT22;45837;51.076;3.578;2024-03-08T04:54:29;18.70;48.20
59977;DHT22;45837;51.076;3.578;2024-03-08T04:56:55;18.60;48.10
59977;DHT22;45837;51.076;3.578;2024-03-08T04:59:21;18.60;48.10
59977;DHT22;45837;51.076;3.578;2024-03-08T05:01:47;18.60;48.20
59977;DHT22;45837;51.076;3.578;2024-03-08T05:04:13;18.60;48.30
59977;DHT22;45837;51.076;3.578;2024-03-08T05:06:38;18.60;48.10
59977;DHT22;45837;51.076;3.578;2024-03-08T05:09:04;18.60;48.20
59977;DHT22;45837;51.076;3.578;2024-03-08T05:11:39;18.60;48.10
59977;DHT22;45837;51.076;3.578;2024-03-08T05:14:05;18.60;48.10
59977;DHT22;45837;51.076;3.578;2024-03-08T05:16:31;18.60;48.20
59977;DHT22;45837;51.076;3.578;2024-03-08T05:18:57;18.60;48.10
59977;DHT22;45837;51.076;3.578;2024-03-08T05:21:22;18.60;48.20
59977;DHT22;45837;51.076;3.578;2024-03-08T05:23:48;18.60;48.10
59977;DHT22;45837;51.076;3.578;2024-03-08T05:26:15;18.60;48.10
59977;DHT22;45837;51.076;3.578;2024-03-08T05:28:41;18.50;48.00
59977;DHT22;45837;51.076;3.578;2024-03-08T05:31:07;18.50;47.90
59977;DHT22;45837;51.076;3.578;2024-03-08T05:33:36;18.50;47.90
59977;DHT22;45837;51.076;3.578;2024-03-08T05:36:02;18.50;47.90
59977;DHT22;45837;51.076;3.578;2024-03-08T05:38:28;18.50;47.90
59977;DHT22;45837;51.076;3.578;2024-03-08T05:40:54;18.50;48.00
59977;DHT22;45837;51.076;3.578;2024-03-08T05:43:20;18.50;47.90
59977;DHT22;45837;51.076;3.578;2024-03-08T05:45:46;18.50;47.80
59977;DHT22;45837;51.076;3.578;2024-03-08T05:48:13;18.50;47.90
59977;DHT22;45837;51.076;3.578;2024-03-08T05:50:38;18.50;47.90
59977;DHT22;45837;51.076;3.578;2024-03-08T05:53:04;18.50;47.90
59977;DHT22;45837;51.076;3.578;2024-03-08T05:55:33;18.50;47.80
59977;DHT22;45837;51.076;3.578;2024-03-08T05:58:01;18.40;47.70
59977;DHT22;45837;51.076;3.578;2024-03-08T06:00:27;18.50;48.00
59977;DHT22;45837;51.076;3.578;2024-03-08T06:02:53;18.40;48.00
59977;DHT22;45837;51.076;3.578;2024-03-08T06:05:20;18.40;48.00
59977;DHT22;45837;51.076;3.578;2024-03-08T06:07:45;18.40;48.50
59977;DHT22;45837;51.076;3.578;2024-03-08T06:10:11;18.40;50.30
59977;DHT22;45837;51.076;3.578;2024-03-08T06:12:40;18.50;49.40
59977;DHT22;45837;51.076;3.578;2024-03-08T06:15:07;18.50;49.60
59977;DHT22;45837;51.076;3.578;2024-03-08T06:17:34;18.50;49.70
59977;DHT22;45837;51.076;3.578;2024-03-08T06:20:00;18.60;50.00
59977;DHT22;45837;51.076;3.578;2024-03-08T06:22:26;18.60;50.30
59977;DHT22;45837;51.076;3.578;2024-03-08T06:24:51;18.60;50.50
59977;DHT22;45837;51.076;3.578;2024-03-08T06:27:19;18.60;50.30
59977;DHT22;45837;51.076;3.578;2024-03-08T06:29:45;18.60;50.80
59977;DHT22;45837;51.076;3.578;2024-03-08T06:32:11;18.60;50.50
59977;DHT22;45837;51.076;3.578;2024-03-08T06:34:37;18.60;50.80
59977;DHT22;45837;51.076;3.578;2024-03-08T06:37:02;18.60;50.50
59977;DHT22;45837;51.076;3.578;2024-03-08T06:39:28;18.70;50.20
59977;DHT22;45837;51.076;3.578;2024-03-08T06:41:57;18.60;49.90
59977;DHT22;45837;51.076;3.578;2024-03-08T06:44:23;18.60;49.90
59977;DHT22;45837;51.076;3.578;2024-03-08T06:46:49;18.60;50.00
59977;DHT22;45837;51.076;3.578;2024-03-08T06:49:15;18.60;49.80
59977;DHT22;45837;51.076;3.578;2024-03-08T06:51:41;18.60;49.80
59977;DHT22;45837;51.076;3.578;2024-03-08T06:54:06;18.60;47.90
59977;DHT22;45837;51.076;3.578;2024-03-08T06:56:34;18.50;46.90
59977;DHT22;45837;51.076;3.578;2024-03-08T06:59:00;18.40;46.80
59977;DHT22;45837;51.076;3.578;2024-03-08T07:01:28;18.30;46.40
59977;DHT22;45837;51.076;3.578;2024-03-08T07:03:57;18.30;46.20
59977;DHT22;45837;51.076;3.578;2024-03-08T07:06:23;18.20;45.90
59977;DHT22;45837;51.076;3.578;2024-03-08T07:08:49;18.10;46.10
59977;DHT22;45837;51.076;3.578;2024-03-08T07:11:14;18.00;46.40
59977;DHT22;45837;51.076;3.578;2024-03-08T07:13:46;17.90;45.60
59977;DHT22;45837;51.076;3.578;2024-03-08T07:16:12;17.90;45.30
59977;DHT22;45837;51.076;3.578;2024-03-08T07:18:38;17.80;45.90
59977;DHT22;45837;51.076;3.578;2024-03-08T07:21:11;17.80;45.30
59977;DHT22;45837;51.076;3.578;2024-03-08T07:23:37;17.80;45.30
59977;DHT22;45837;51.076;3.578;2024-03-08T07:26:19;17.80;45.10
59977;DHT22;45837;51.076;3.578;2024-03-08T07:28:45;17.80;45.20
59977;DHT22;45837;51.076;3.578;2024-03-08T07:31:11;17.80;45.10
59977;DHT22;45837;51.076;3.578;2024-03-08T07:33:52;17.80;44.60
59977;DHT22;45837;51.076;3.578;2024-03-08T07:36:19;17.70;44.30
59977;DHT22;45837;51.076;3.578;2024-03-08T07:38:44;17.70;45.00
59977;DHT22;45837;51.076;3.578;2024-03-08T07:41:13;17.70;45.10
59977;DHT22;45837;51.076;3.578;2024-03-08T07:43:38;17.70;44.90
59977;DHT22;45837;51.076;3.578;2024-03-08T07:46:04;17.70;45.20
59977;DHT22;45837;51.076;3.578;2024-03-08T07:48:30;17.70;45.00
59977;DHT22;45837;51.076;3.578;2024-03-08T07:50:58;17.80;45.10
59977;DHT22;45837;51.076;3.578;2024-03-08T07:53:24;17.80;44.70
59977;DHT22;45837;51.076;3.578;2024-03-08T07:55:50;17.80;44.30
59977;DHT22;45837;51.076;3.578;2024-03-08T07:58:15;17.80;43.50
59977;DHT22;45837;51.076;3.578;2024-03-08T08:00:42;17.80;44.00
59977;DHT22;45837;51.076;3.578;2024-03-08T08:03:08;17.80;44.60
59977;DHT22;45837;51.076;3.578;2024-03-08T08:05:34;17.80;44.30
59977;DHT22;45837;51.076;3.578;2024-03-08T08:08:01;17.80;43.70
59977;DHT22;45837;51.076;3.578;2024-03-08T08:10:28;17.80;43.70
59977;DHT22;45837;51.076;3.578;2024-03-08T08:12:54;17.80;44.20
59977;DHT22;45837;51.076;3.578;2024-03-08T08:15:19;17.90;43.80
59977;DHT22;45837;51.076;3.578;2024-03-08T08:17:46;17.90;44.00
59977;DHT22;45837;51.076;3.578;2024-03-08T08:20:12;17.80;43.30
59977;DHT22;45837;51.076;3.578;2024-03-08T08:22:38;17.90;43.70
59977;DHT22;45837;51.076;3.578;2024-03-08T08:25:05;17.90;43.20
59977;DHT22;45837;51.076;3.578;2024-03-08T08:27:31;17.90;43.20
59977;DHT22;45837;51.076;3.578;2024-03-08T08:29:56;17.90;43.20
59977;DHT22;45837;51.076;3.578;2024-03-08T08:32:22;17.90;43.20
59977;DHT22;45837;51.076;3.578;2024-03-08T08:34:48;17.90;43.00
59977;DHT22;45837;51.076;3.578;2024-03-08T08:37:13;17.90;43.10
59977;DHT22;45837;51.076;3.578;2024-03-08T08:39:39;17.90;42.80
59977;DHT22;45837;51.076;3.578;2024-03-08T08:42:05;17.90;42.60
59977;DHT22;45837;51.076;3.578;2024-03-08T08:44:32;18.00;43.10
59977;DHT22;45837;51.076;3.578;2024-03-08T08:46:58;18.00;42.90
59977;DHT22;45837;51.076;3.578;2024-03-08T08:49:24;18.00;42.90
59977;DHT22;45837;51.076;3.578;2024-03-08T08:51:51;18.00;42.80
59977;DHT22;45837;51.076;3.578;2024-03-08T08:54:17;18.10;42.50
59977;DHT22;45837;51.076;3.578;2024-03-08T08:56:43;18.10;42.20
59977;DHT22;45837;51.076;3.578;2024-03-08T08:59:09;18.00;42.30
59977;DHT22;45837;51.076;3.578;2024-03-08T09:01:42;18.10;42.30
59977;DHT22;45837;51.076;3.578;2024-03-08T09:04:07;18.10;42.10
59977;DHT22;45837;51.076;3.578;2024-03-08T09:06:33;18.10;41.90
59977;DHT22;45837;51.076;3.578;2024-03-08T09:08:59;18.10;42.40
59977;DHT22;45837;51.076;3.578;2024-03-08T09:11:25;18.20;41.90
59977;DHT22;45837;51.076;3.578;2024-03-08T09:13:51;18.20;41.80
59977;DHT22;45837;51.076;3.578;2024-03-08T09:16:17;18.20;41.50
59977;DHT22;45837;51.076;3.578;2024-03-08T09:18:42;18.20;41.60
59977;DHT22;45837;51.076;3.578;2024-03-08T09:21:08;18.20;41.30
59977;DHT22;45837;51.076;3.578;2024-03-08T09:23:38;18.20;41.30
59977;DHT22;45837;51.076;3.578;2024-03-08T09:26:05;18.20;41.40
59977;DHT22;45837;51.076;3.578;2024-03-08T09:28:34;18.20;41.90
59977;DHT22;45837;51.076;3.578;2024-03-08T09:31:01;18.20;41.30
59977;DHT22;45837;51.076;3.578;2024-03-08T09:33:26;18.20;41.80
59977;DHT22;45837;51.076;3.578;2024-03-08T09:35:54;18.30;41.50
59977;DHT22;45837;51.076;3.578;2024-03-08T09:38:19;18.20;41.50
59977;DHT22;45837;51.076;3.578;2024-03-08T09:40:46;18.30;41.50
59977;DHT22;45837;51.076;3.578;2024-03-08T09:43:13;18.30;41.80
59977;DHT22;45837;51.076;3.578;2024-03-08T09:45:39;18.30;41.60
59977;DHT22;45837;51.076;3.578;2024-03-08T09:48:12;18.40;41.90
59977;DHT22;45837;51.076;3.578;2024-03-08T09:50:40;18.50;41.40
59977;DHT22;45837;51.076;3.578;2024-03-08T09:53:06;18.50;41.20
59977;DHT22;45837;51.076;3.578;2024-03-08T09:55:37;18.50;41.20
59977;DHT22;45837;51.076;3.578;2024-03-08T09:58:05;18.50;40.60
59977;DHT22;45837;51.076;3.578;2024-03-08T10:00:49;18.50;40.90
59977;DHT22;45837;51.076;3.578;2024-03-08T10:03:15;18.40;41.50
59977;DHT22;45837;51.076;3.578;2024-03-08T10:05:41;18.50;41.00
59977;DHT22;45837;51.076;3.578;2024-03-08T10:08:07;18.60;41.00
59977;DHT22;45837;51.076;3.578;2024-03-08T10:10:36;18.50;40.50
59977;DHT22;45837;51.076;3.578;2024-03-08T10:13:06;18.60;40.90
59977;DHT22;45837;51.076;3.578;2024-03-08T10:15:32;18.60;40.60
59977;DHT22;45837;51.076;3.578;2024-03-08T10:18:00;18.60;40.70
59977;DHT22;45837;51.076;3.578;2024-03-08T10:20:28;18.60;40.60
59977;DHT22;45837;51.076;3.578;2024-03-08T10:23:02;18.60;40.80
59977;DHT22;45837;51.076;3.578;2024-03-08T10:25:30;18.70;40.60
59977;DHT22;45837;51.076;3.578;2024-03-08T10:27:56;18.70;40.80
59977;DHT22;45837;51.076;3.578;2024-03-08T10:30:22;18.70;40.60
59977;DHT22;45837;51.076;3.578;2024-03-08T10:32:48;18.70;40.90
59977;DHT22;45837;51.076;3.578;2024-03-08T10:35:14;18.70;40.70
59977;DHT22;45837;51.076;3.578;2024-03-08T10:37:46;18.70;40.80
59977;DHT22;45837;51.076;3.578;2024-03-08T10:40:16;18.70;40.60
59977;DHT22;45837;51.076;3.578;2024-03-08T10:42:52;18.70;40.70
59977;DHT22;45837;51.076;3.578;2024-03-08T10:50:33;18.70;40.40
59977;DHT22;45837;51.076;3.578;2024-03-08T10:53:00;18.70;40.80
59977;DHT22;45837;51.076;3.578;2024-03-08T10:55:26;18.70;41.10
59977;DHT22;45837;51.076;3.578;2024-03-08T10:57:53;18.80;40.70
59977;DHT22;45837;51.076;3.578;2024-03-08T11:00:19;18.80;40.70
59977;DHT22;45837;51.076;3.578;2024-03-08T11:02:52;18.80;40.80
59977;DHT22;45837;51.076;3.578;2024-03-08T11:08:19;18.80;40.60
59977;DHT22;45837;51.076;3.578;2024-03-08T11:10:51;18.80;40.60
59977;DHT22;45837;51.076;3.578;2024-03-08T11:13:33;18.80;40.60
59977;DHT22;45837;51.076;3.578;2024-03-08T11:16:02;18.80;40.60
59977;DHT22;45837;51.076;3.578;2024-03-08T11:18:34;18.80;40.50
59977;DHT22;45837;51.076;3.578;2024-03-08T11:21:03;18.70;40.70
59977;DHT22;45837;51.076;3.578;2024-03-08T11:23:32;18.80;40.60
59977;DHT22;45837;51.076;3.578;2024-03-08T11:25:59;18.70;40.20
59977;DHT22;45837;51.076;3.578;2024-03-08T11:28:25;18.70;40.80
59977;DHT22;45837;51.076;3.578;2024-03-08T11:33:27;18.70;40.90
59977;DHT22;45837;51.076;3.578;2024-03-08T11:38:42;18.80;40.70
59977;DHT22;45837;51.076;3.578;2024-03-08T11:41:09;18.80;40.70
59977;DHT22;45837;51.076;3.578;2024-03-08T11:43:42;18.70;40.50
59977;DHT22;45837;51.076;3.578;2024-03-08T11:46:08;18.70;40.50
59977;DHT22;45837;51.076;3.578;2024-03-08T11:48:34;18.70;40.70
59977;DHT22;45837;51.076;3.578;2024-03-08T11:51:01;18.70;40.60
59977;DHT22;45837;51.076;3.578;2024-03-08T11:53:27;18.70;40.50
59977;DHT22;45837;51.076;3.578;2024-03-08T11:55:52;18.70;40.50
59977;DHT22;45837;51.076;3.578;2024-03-08T11:58:18;18.70;40.30
59977;DHT22;45837;51.076;3.578;2024-03-08T12:00:44;18.70;40.40
59977;DHT22;45837;51.076;3.578;2024-03-08T12:03:11;18.70;40.70
59977;DHT22;45837;51.076;3.578;2024-03-08T12:05:37;18.70;40.70
59977;DHT22;45837;51.076;3.578;2024-03-08T12:08:05;18.70;40.80
59977;DHT22;45837;51.076;3.578;2024-03-08T12:10:32;18.70;40.80
59977;DHT22;45837;51.076;3.578;2024-03-08T12:12:58;18.70;40.70
59977;DHT22;45837;51.076;3.578;2024-03-08T12:15:28;18.70;40.70
59977;DHT22;45837;51.076;3.578;2024-03-08T12:17:54;18.60;40.50
59977;DHT22;45837;51.076;3.578;2024-03-08T12:20:24;18.70;41.40
59977;DHT22;45837;51.076;3.578;2024-03-08T12:22:59;18.70;41.30
59977;DHT22;45837;51.076;3.578;2024-03-08T12:25:32;18.60;40.80
59977;DHT22;45837;51.076;3.578;2024-03-08T12:28:07;18.60;40.90
59977;DHT22;45837;51.076;3.578;2024-03-08T12:30:36;18.60;40.90
59977;DHT22;45837;51.076;3.578;2024-03-08T12:33:09;18.60;41.10
59977;DHT22;45837;51.076;3.578;2024-03-08T12:35:37;18.60;41.20
59977;DHT22;45837;51.076;3.578;2024-03-08T12:38:04;18.60;41.00
59977;DHT22;45837;51.076;3.578;2024-03-08T12:40:31;18.60;41.10
59977;DHT22;45837;51.076;3.578;2024-03-08T12:42:58;18.60;41.20
59977;DHT22;45837;51.076;3.578;2024-03-08T12:45:24;18.60;41.20
59977;DHT22;45837;51.076;3.578;2024-03-08T12:47:50;18.50;41.10
59977;DHT22;45837;51.076;3.578;2024-03-08T12:50:16;18.50;41.20
59977;DHT22;45837;51.076;3.578;2024-03-08T12:52:42;18.40;41.10
59977;DHT22;45837;51.076;3.578;2024-03-08T12:55:08;18.40;41.20
59977;DHT22;45837;51.076;3.578;2024-03-08T12:57:34;18.40;41.20
59977;DHT22;45837;51.076;3.578;2024-03-08T13:00:00;18.40;41.20
59977;DHT22;45837;51.076;3.578;2024-03-08T13:02:28;18.30;41.10
59977;DHT22;45837;51.076;3.578;2024-03-08T13:04:53;18.40;41.20
59977;DHT22;45837;51.076;3.578;2024-03-08T13:07:23;18.30;40.90
59977;DHT22;45837;51.076;3.578;2024-03-08T13:09:54;18.30;41.00
59977;DHT22;45837;51.076;3.578;2024-03-08T13:12:20;18.30;41.10
59977;DHT22;45837;51.076;3.578;2024-03-08T13:14:47;18.30;40.90
59977;DHT22;45837;51.076;3.578;2024-03-08T13:17:16;18.30;41.20
59977;DHT22;45837;51.076;3.578;2024-03-08T13:19:44;18.30;41.30
59977;DHT22;45837;51.076;3.578;2024-03-08T13:22:09;18.30;41.30
59977;DHT22;45837;51.076;3.578;2024-03-08T13:24:39;18.30;41.50
59977;DHT22;45837;51.076;3.578;2024-03-08T13:27:06;18.30;41.40
59977;DHT22;45837;51.076;3.578;2024-03-08T13:29:42;18.30;41.40
59977;DHT22;45837;51.076;3.578;2024-03-08T13:32:08;18.30;41.50
59977;DHT22;45837;51.076;3.578;2024-03-08T13:34:40;18.30;41.20
59977;DHT22;45837;51.076;3.578;2024-03-08T13:37:06;18.20;41.20
59977;DHT22;45837;51.076;3.578;2024-03-08T13:39:32;18.20;41.40
59977;DHT22;45837;51.076;3.578;2024-03-08T13:42:09;18.20;41.40
59977;DHT22;45837;51.076;3.578;2024-03-08T13:44:38;18.20;41.20
59977;DHT22;45837;51.076;3.578;2024-03-08T13:47:04;18.20;41.20
59977;DHT22;45837;51.076;3.578;2024-03-08T13:49:30;18.20;41.30
59977;DHT22;45837;51.076;3.578;2024-03-08T13:51:56;18.20;41.30
59977;DHT22;45837;51.076;3.578;2024-03-08T13:54:24;18.10;41.40
59977;DHT22;45837;51.076;3.578;2024-03-08T13:56:50;18.20;41.50
59977;DHT22;45837;51.076;3.578;2024-03-08T13:59:19;18.20;41.30
59977;DHT22;45837;51.076;3.578;2024-03-08T14:01:48;18.10;41.30
59977;DHT22;45837;51.076;3.578;2024-03-08T14:04:14;18.10;41.50
59977;DHT22;45837;51.076;3.578;2024-03-08T14:06:42;18.10;41.70
59977;DHT22;45837;51.076;3.578;2024-03-08T14:09:13;18.10;41.60
59977;DHT22;45837;51.076;3.578;2024-03-08T14:11:45;18.10;41.60
59977;DHT22;45837;51.076;3.578;2024-03-08T14:14:10;18.10;41.60
59977;DHT22;45837;51.076;3.578;2024-03-08T14:16:41;18.00;41.60
59977;DHT22;45837;51.076;3.578;2024-03-08T14:19:06;18.00;41.60
59977;DHT22;45837;51.076;3.578;2024-03-08T14:21:32;18.10;41.70
59977;DHT22;45837;51.076;3.578;2024-03-08T14:23:58;18.10;41.50
59977;DHT22;45837;51.076;3.578;2024-03-08T14:26:24;18.10;41.50
59977;DHT22;45837;51.076;3.578;2024-03-08T14:28:50;18.00;41.40
59977;DHT22;45837;51.076;3.578;2024-03-08T14:31:20;18.10;41.50
59977;DHT22;45837;51.076;3.578;2024-03-08T14:33:45;18.00;41.70
59977;DHT22;45837;51.076;3.578;2024-03-08T14:36:14;18.00;41.60
59977;DHT22;45837;51.076;3.578;2024-03-08T14:38:42;18.10;41.70
59977;DHT22;45837;51.076;3.578;2024-03-08T14:41:08;18.00;41.40
59977;DHT22;45837;51.076;3.578;2024-03-08T14:43:34;18.00;41.60
59977;DHT22;45837;51.076;3.578;2024-03-08T14:46:00;18.00;41.50
59977;DHT22;45837;51.076;3.578;2024-03-08T14:48:25;18.00;41.80
59977;DHT22;45837;51.076;3.578;2024-03-08T14:50:51;18.00;41.70
59977;DHT22;45837;51.076;3.578;2024-03-08T14:53:17;18.00;41.40
59977;DHT22;45837;51.076;3.578;2024-03-08T14:55:44;18.00;41.60
59977;DHT22;45837;51.076;3.578;2024-03-08T14:58:12;18.00;41.60
59977;DHT22;45837;51.076;3.578;2024-03-08T15:00:38;18.00;41.60
59977;DHT22;45837;51.076;3.578;2024-03-08T15:03:05;18.00;41.90
59977;DHT22;45837;51.076;3.578;2024-03-08T15:05:35;18.00;41.90
59977;DHT22;45837;51.076;3.578;2024-03-08T15:08:05;18.00;41.70
59977;DHT22;45837;51.076;3.578;2024-03-08T15:10:35;18.00;41.60
59977;DHT22;45837;51.076;3.578;2024-03-08T15:13:01;18.00;41.50
59977;DHT22;45837;51.076;3.578;2024-03-08T15:15:28;18.00;41.40
59977;DHT22;45837;51.076;3.578;2024-03-08T15:17:55;17.90;41.50
59977;DHT22;45837;51.076;3.578;2024-03-08T15:20:23;18.00;41.50
59977;DHT22;45837;51.076;3.578;2024-03-08T15:22:50;18.00;41.50
59977;DHT22;45837;51.076;3.578;2024-03-08T15:25:17;18.00;41.60
59977;DHT22;45837;51.076;3.578;2024-03-08T15:27:46;18.00;41.30
59977;DHT22;45837;51.076;3.578;2024-03-08T15:30:12;18.00;41.30
59977;DHT22;45837;51.076;3.578;2024-03-08T15:32:47;18.00;41.70
59977;DHT22;45837;51.076;3.578;2024-03-08T15:35:13;18.00;41.40
59977;DHT22;45837;51.076;3.578;2024-03-08T15:37:40;18.00;41.60
59977;DHT22;45837;51.076;3.578;2024-03-08T15:40:11;18.00;41.40
59977;DHT22;45837;51.076;3.578;2024-03-08T15:42:47;18.00;41.40